Time;durP1;ratioP1;P1;durP2;ratioP2;P2;SDS_P1;SDS_P2;PMS_P1;PMS_P2;Temp;Humidity;BMP_temperature;BMP_pressure;BME280_temperature;BME280_humidity;BME280_pressure;Samples;Min_cycle;Max_cycle;Signal;HPM_P1;HPM_P2
2022/11/17 00:01:14;;;;;;;;;;;8.10;99.90;;;;;;5098902;28;20765;-63
2022/11/17 00:03:39;;;;;;;14.32;6.43;;;8.10;99.90;;;;;;5100621;28;19919;-64
2022/11/17 00:06:05;;;;;;;;;;;8.20;99.90;;;;;;5098957;28;20043;-64
2022/11/17 00:08:31;;;;;;;10.65;6.63;;;8.20;99.90;;;;;;5100700;28;20010;-63
2022/11/17 00:11:04;;;;;;;14.32;7.30;;;8.10;99.90;;;;;;5098746;28;20085;-63
2022/11/17 00:16:16;;;;;;;13.98;6.35;;;8.10;99.90;;;;;;5097789;28;20154;-63
2022/11/17 00:21:27;;;;;;;13.73;6.95;;;8.10;99.90;;;;;;5064008;28;20035;-63
2022/11/17 00:23:54;;;;;;;10.70;5.75;;;8.00;99.90;;;;;;5079455;28;20495;-63
2022/11/17 00:26:31;;;;;;;17.50;6.88;;;8.00;99.90;;;;;;5084248;28;20039;-63
2022/11/17 00:28:59;;;;;;;19.73;7.10;;;8.00;99.90;;;;;;5084916;28;20847;-63
2022/11/17 00:34:16;;;;;;;12.30;5.82;;;8.00;99.90;;;;;;5085479;28;20043;-63
2022/11/17 00:36:48;;;;;;;10.02;5.78;;;8.00;99.90;;;;;;5084152;28;20048;-64
2022/11/17 00:39:15;;;;;;;16.10;5.68;;;8.00;99.90;;;;;;5087047;28;20040;-64
2022/11/17 00:41:40;;;;;;;7.55;5.50;;;8.00;99.90;;;;;;5084043;28;20043;-64
2022/11/17 00:44:06;;;;;;;;;;;7.90;99.90;;;;;;5084858;28;20036;-64
2022/11/17 00:46:32;;;;;;;11.63;5.63;;;8.00;99.90;;;;;;5084024;28;19931;-63
2022/11/17 00:48:58;;;;;;;11.90;4.93;;;8.00;99.90;;;;;;5083980;28;20040;-64
2022/11/17 00:51:24;;;;;;;;;;;7.90;99.90;;;;;;5088258;28;20036;-64
2022/11/17 00:53:50;;;;;;;15.82;5.53;;;8.00;99.90;;;;;;5086375;28;19927;-63
2022/11/17 00:56:16;;;;;;;8.55;5.22;;;8.00;99.90;;;;;;5064049;28;20044;-63
2022/11/17 00:58:42;;;;;;;;;;;8.00;99.90;;;;;;5080625;28;20051;-63
2022/11/17 01:01:08;;;;;;;9.68;5.28;;;8.00;99.90;;;;;;5083213;28;19957;-63
2022/11/17 01:03:34;;;;;;;;;;;8.00;99.90;;;;;;5084898;28;20036;-63
2022/11/17 01:06:08;;;;;;;11.65;4.82;;;8.00;99.90;;;;;;5083922;28;20030;-63
2022/11/17 01:08:35;;;;;;;7.68;4.45;;;7.90;99.90;;;;;;5090518;28;20040;-63
2022/11/17 01:11:12;;;;;;;12.68;5.38;;;7.80;99.90;;;;;;5082921;28;20063;-63
2022/11/17 01:13:39;;;;;;;12.00;5.40;;;7.80;99.90;;;;;;5087876;28;20093;-65
2022/11/17 01:16:13;;;;;;;12.43;4.93;;;7.80;99.90;;;;;;5083192;28;20054;-63
2022/11/17 01:18:40;;;;;;;11.25;5.18;;;7.70;99.90;;;;;;5085555;28;20648;-64
2022/11/17 01:21:12;;;;;;;12.70;4.68;;;7.70;99.90;;;;;;5083795;28;20055;-64
2022/11/17 01:23:38;;;;;;;8.55;4.70;;;7.80;99.90;;;;;;5084377;28;20036;-64
2022/11/17 01:26:08;;;;;;;17.63;5.50;;;7.70;99.90;;;;;;5082369;28;20094;-64
2022/11/17 01:28:34;;;;;;;8.18;6.50;;;7.70;99.90;;;;;;5083288;28;20044;-63
2022/11/17 01:31:03;;;;;;;16.02;5.97;;;7.60;99.90;;;;;;5082207;28;20047;-63
2022/11/17 01:33:29;;;;;;;9.77;5.85;;;7.70;99.90;;;;;;5083878;28;20274;-63
2022/11/17 01:36:00;;;;;;;13.15;6.65;;;7.70;99.90;;;;;;5084056;28;20230;-63
2022/11/17 01:38:25;;;;;;;12.52;5.47;;;7.70;99.90;;;;;;5083388;28;20050;-63
2022/11/17 01:40:51;;;;;;;;;;;7.70;99.90;;;;;;5085392;28;20036;-64
2022/11/17 01:43:33;;;;;;;13.20;6.45;;;7.70;99.90;;;;;;5086554;28;20395;-63
2022/11/17 01:45:58;;;;;;;10.57;5.93;;;7.60;99.90;;;;;;5079481;28;20043;-64
2022/11/17 01:48:24;;;;;;;;;;;7.60;99.90;;;;;;5083563;28;20615;-63
2022/11/17 01:50:50;;;;;;;13.70;6.60;;;7.60;99.90;;;;;;5075013;28;20383;-63
2022/11/17 01:53:17;;;;;;;10.88;5.00;;;7.60;99.90;;;;;;5083500;28;20035;-63
2022/11/17 01:55:53;;;;;;;11.30;5.82;;;7.50;99.90;;;;;;5083016;28;20036;-64
2022/11/17 01:58:33;;;;;;;13.57;5.40;;;7.50;99.90;;;;;;5082144;28;20652;-63
2022/11/17 02:00:59;;;;;;;13.95;5.40;;;7.60;99.90;;;;;;5081039;28;20044;-64
2022/11/17 02:03:25;;;;;;;;;;;7.50;99.90;;;;;;5084011;28;20591;-63
2022/11/17 02:05:58;;;;;;;11.68;4.88;;;7.50;99.90;;;;;;5082685;28;19920;-63
2022/11/17 02:08:27;;;;;;;8.02;5.22;;;7.50;99.90;;;;;;5082268;28;20604;-63
2022/11/17 02:10:53;;;;;;;13.60;5.25;;;7.50;99.90;;;;;;5082553;28;20061;-63
2022/11/17 02:13:21;;;;;;;;;;;7.50;99.90;;;;;;5082959;28;20036;-63
2022/11/17 02:15:47;;;;;;;14.70;6.60;;;7.40;99.90;;;;;;5083170;28;19995;-62
2022/11/17 02:18:13;;;;;;;;;;;7.40;99.90;;;;;;5083188;28;20143;-63
2022/11/17 02:20:43;;;;;;;17.83;7.37;;;7.40;99.90;;;;;;5088310;28;19919;-63
2022/11/17 02:23:18;;;;;;;8.82;6.82;;;7.30;99.90;;;;;;5089263;28;20047;-64
2022/11/17 02:26:26;;;;;;;13.13;7.60;;;7.30;99.90;;;;;;5088034;28;20044;-64
2022/11/17 02:29:24;;;;;;;10.63;6.95;;;7.30;99.90;;;;;;5088160;28;20080;-63
2022/11/17 02:32:08;;;;;;;16.73;8.90;;;7.30;99.90;;;;;;5055385;28;20051;-63
2022/11/17 02:34:37;;;;;;;15.05;8.10;;;7.30;99.90;;;;;;5080700;28;20032;-63
2022/11/17 02:37:15;;;;;;;13.77;7.28;;;7.30;99.90;;;;;;5086311;28;20102;-64
2022/11/17 02:39:48;;;;;;;15.25;8.20;;;7.20;99.90;;;;;;5082697;28;20650;-63
2022/11/17 02:45:34;;;;;;;13.68;8.15;;;7.20;99.90;;;;;;5075935;28;20036;-64
2022/11/17 02:48:04;;;;;;;16.80;9.05;;;7.20;99.90;;;;;;5082563;28;20067;-64
2022/11/17 02:50:33;;;;;;;12.52;7.55;;;7.20;99.90;;;;;;5081356;28;20141;-64
2022/11/17 02:52:59;;;;;;;14.02;8.02;;;7.10;99.90;;;;;;5084197;28;20104;-62
2022/11/17 02:55:26;;;;;;;;;;;7.10;99.90;;;;;;5086453;28;20071;-64
2022/11/17 02:57:52;;;;;;;13.60;7.95;;;7.10;99.90;;;;;;5083700;28;19927;-63
2022/11/17 03:00:19;;;;;;;13.57;7.80;;;7.10;99.90;;;;;;5082327;28;20044;-63
2022/11/17 03:02:54;;;;;;;13.27;7.57;;;7.10;99.90;;;;;;5085467;28;20036;-63
2022/11/17 03:05:32;;;;;;;20.17;8.73;;;7.10;99.90;;;;;;5083164;28;20125;-63
2022/11/17 03:08:19;;;;;;;12.50;7.55;;;7.10;99.90;;;;;;5089348;28;20987;-63
2022/11/17 03:10:51;;;;;;;13.73;7.80;;;7.20;99.90;;;;;;5082206;28;20136;-63
2022/11/17 03:13:20;;;;;;;13.88;7.20;;;7.20;99.90;;;;;;5083162;28;20042;-63
2022/11/17 03:16:13;;;;;;;10.65;6.57;;;7.20;99.90;;;;;;5086149;28;20419;-63
2022/11/17 03:18:41;;;;;;;13.65;6.43;;;7.20;99.90;;;;;;5079250;28;20078;-63
2022/11/17 03:21:19;;;;;;;11.93;5.95;;;7.20;99.90;;;;;;5071237;28;20571;-63
2022/11/17 03:24:12;;;;;;;8.73;5.20;;;7.20;99.90;;;;;;5083697;28;20036;-63
2022/11/17 03:26:43;;;;;;;12.40;5.20;;;7.20;99.90;;;;;;5077654;28;20055;-63
2022/11/17 03:29:13;;;;;;;7.40;4.97;;;7.20;99.90;;;;;;5082073;28;20032;-63
2022/11/17 03:31:42;;;;;;;8.98;5.60;;;7.20;99.90;;;;;;5081118;28;20044;-63
2022/11/17 03:34:14;;;;;;;7.10;4.60;;;7.30;99.90;;;;;;5086418;28;20044;-63
2022/11/17 03:36:45;;;;;;;8.32;5.28;;;7.20;99.90;;;;;;5085834;28;20043;-63
2022/11/17 03:39:32;;;;;;;9.80;5.25;;;7.20;99.90;;;;;;5082582;28;20044;-62
2022/11/17 03:42:07;;;;;;;;;;;7.20;99.90;;;;;;5083885;28;20067;-63
2022/11/17 03:44:37;;;;;;;9.07;5.07;;;7.20;99.90;;;;;;5083014;28;20329;-63
2022/11/17 03:47:06;;;;;;;7.18;4.97;;;7.20;99.90;;;;;;5081137;28;20600;-63
2022/11/17 03:49:50;;;;;;;10.75;5.55;;;7.20;99.90;;;;;;5083514;28;20119;-63
2022/11/17 03:52:16;;;;;;;8.60;5.72;;;7.10;99.90;;;;;;5072767;28;20586;-63
2022/11/17 03:54:41;;;;;;;11.50;4.80;;;7.10;99.90;;;;;;5095873;28;20048;-63
2022/11/17 03:57:26;;;;;;;;;;;7.10;99.90;;;;;;5089632;28;20070;-63
2022/11/17 04:00:02;;;;;;;7.55;4.43;;;7.10;99.90;;;;;;5085913;28;20463;-63
2022/11/17 04:02:28;;;;;;;;;;;7.10;99.90;;;;;;5087576;28;20119;-63
2022/11/17 04:05:06;;;;;;;10.43;4.97;;;7.10;99.90;;;;;;5086714;28;20014;-62
2022/11/17 04:07:40;;;;;;;9.30;4.93;;;7.10;99.90;;;;;;5090620;28;20054;-63
2022/11/17 04:10:08;;;;;;;7.57;4.15;;;7.10;99.90;;;;;;5087798;28;20050;-63
2022/11/17 04:18:03;;;;;;;8.40;4.40;;;7.10;99.90;;;;;;5085272;28;20491;-62
2022/11/17 04:20:34;;;;;;;8.30;4.30;;;7.10;99.90;;;;;;5069948;28;20032;-63
2022/11/17 04:23:12;;;;;;;8.35;5.10;;;7.00;99.90;;;;;;5087780;28;20051;-63
2022/11/17 04:28:38;;;;;;;5.68;3.42;;;7.10;99.90;;;;;;5085613;28;20071;-63
2022/11/17 04:31:27;;;;;;;6.97;4.00;;;7.10;99.90;;;;;;5069069;28;20499;-63
2022/11/17 04:33:58;;;;;;;8.85;4.32;;;7.10;99.90;;;;;;5086485;28;20040;-63
2022/11/17 04:36:33;;;;;;;8.27;4.30;;;7.10;99.90;;;;;;5080197;28;20040;-62
2022/11/17 04:38:59;;;;;;;6.25;3.88;;;7.10;99.90;;;;;;5091070;28;20044;-62
2022/11/17 04:44:11;;;;;;;6.70;4.00;;;7.10;99.90;;;;;;5085473;28;19915;-62
2022/11/17 04:46:39;;;;;;;8.15;4.20;;;7.20;99.90;;;;;;5085852;28;20074;-63
2022/11/17 04:49:06;;;;;;;5.75;3.70;;;7.20;99.90;;;;;;5084810;28;20040;-62
2022/11/17 04:51:32;;;;;;;8.50;4.50;;;7.20;99.90;;;;;;5086201;28;20047;-62
2022/11/17 04:53:59;;;;;;;9.48;4.72;;;7.20;99.90;;;;;;5083916;28;20508;-62
2022/11/17 04:56:25;;;;;;;8.70;5.38;;;7.20;99.90;;;;;;5095535;28;20080;-63
2022/11/17 04:58:52;;;;;;;9.30;5.00;;;7.20;99.90;;;;;;5106911;28;20039;-63
2022/11/17 05:01:19;;;;;;;10.80;5.50;;;7.20;99.90;;;;;;5095207;28;20047;-63
2022/11/17 05:03:46;;;;;;;8.18;4.78;;;7.20;99.90;;;;;;5085000;28;20052;-62
2022/11/17 05:06:15;;;;;;;10.52;4.97;;;7.20;99.90;;;;;;5084800;28;20680;-62
2022/11/17 05:08:41;;;;;;;7.85;5.07;;;7.20;99.90;;;;;;5093606;28;20040;-63
2022/11/17 05:13:53;;;;;;;7.72;4.50;;;;;;;;;;5089031;28;20039;-63
2022/11/17 05:19:04;;;;;;;7.85;4.55;;;;;;;;;;5085573;28;20048;-62
2022/11/17 05:21:31;;;;;;;10.77;4.13;;;;;;;;;;5088034;28;20122;-62
2022/11/17 05:23:57;;;;;;;9.27;4.72;;;;;;;;;;5069872;28;20044;-62
2022/11/17 05:26:33;;;;;;;8.82;3.95;;;;;;;;;;5085064;28;20048;-63
2022/11/17 05:28:59;;;;;;;;;;;;;;;;;;5086126;28;20076;-63
2022/11/17 05:31:26;;;;;;;7.00;3.53;;;;;;;;;;5085165;28;19925;-64
2022/11/17 05:33:53;;;;;;;5.90;3.25;;;;;;;;;;5096509;28;20035;-63
2022/11/17 05:36:19;;;;;;;6.22;3.03;;;;;;;;;;5092772;28;20063;-63
2022/11/17 05:38:46;;;;;;;4.78;2.95;;;;;;;;;;5090682;28;20514;-63
2022/11/17 05:41:13;;;;;;;3.92;2.75;;;;;;;;;;5092566;28;20035;-63
2022/11/17 05:43:39;;;;;;;3.55;2.50;;;;;;;;;;5100147;28;20702;-63
2022/11/17 05:46:05;;;;;;;6.97;3.90;;;;;;;;;;5086054;28;20077;-63
2022/11/17 05:48:32;;;;;;;6.95;4.88;;;;;;;;;;5102347;28;20143;-63
2022/11/17 05:50:59;;;;;;;8.00;4.65;;;;;;;;;;5086820;28;20047;-62
2022/11/17 05:53:25;;;;;;;8.85;5.03;;;;;;;;;;5091277;28;20044;-63
2022/11/17 05:56:01;;;;;;;11.43;6.18;;;;;;;;;;5086345;28;20041;-63
2022/11/17 05:58:30;;;;;;;10.63;6.47;;;;;;;;;;5095414;28;20596;-63
2022/11/17 06:00:57;;;;;;;14.15;7.18;;;;;;;;;;5089468;28;20043;-63
2022/11/17 06:03:31;;;;;;;10.95;6.97;;;;;;;;;;5094072;28;20419;-63
2022/11/17 06:05:57;;;;;;;15.15;8.00;;;;;;;;;;5082949;28;20040;-62
2022/11/17 06:08:24;;;;;;;14.50;9.05;;;;;;;;;;5091471;28;20040;-64
2022/11/17 06:10:50;;;;;;;12.20;8.15;;;;;;;;;;5065817;28;20380;-63
2022/11/17 06:13:16;;;;;;;;;;;;;;;;;;5085023;28;20549;-63
2022/11/17 06:15:42;;;;;;;15.18;9.48;;;;;;;;;;5086973;28;19934;-63
2022/11/17 06:18:08;;;;;;;;;;;;;;;;;;5094980;28;20527;-61
2022/11/17 06:20:35;;;;;;;13.43;8.02;;;;;;;;;;5090535;28;19959;-63
2022/11/17 06:23:02;;;;;;;12.98;8.13;;;;;;;;;;5097295;28;20558;-62
2022/11/17 06:25:29;;;;;;;18.67;9.60;;;;;;;;;;5090344;28;20127;-62
2022/11/17 06:27:55;;;;;;;14.93;8.85;;;;;;;;;;5091846;28;20035;-63
2022/11/17 06:30:21;;;;;;;17.05;8.48;;;;;;;;;;5080165;28;20121;-63
2022/11/17 06:32:48;;;;;;;16.55;8.40;;;;;;;;;;5063721;28;20058;-63
2022/11/17 06:35:15;;;;;;;12.18;7.85;;;;;;;;;;5082782;28;20415;-62
2022/11/17 06:37:41;;;;;;;12.25;7.50;;;;;;;;;;5086055;28;20183;-62
2022/11/17 06:40:08;;;;;;;10.45;6.53;;;;;;;;;;5085693;28;20047;-63
2022/11/17 06:45:19;;;;;;;11.75;7.55;;;;;;;;;;5080213;28;20046;-59
2022/11/17 06:47:45;;;;;;;;;;;;;;;;;;5092775;28;20048;-62
2022/11/17 06:50:11;;;;;;;8.82;4.97;;;;;;;;;;5081937;28;19920;-60
2022/11/17 06:52:38;;;;;;;12.52;7.43;;;;;;;;;;5083848;28;20512;-59
2022/11/17 06:55:04;;;;;;;11.57;6.93;;;;;;;;;;5082718;28;20040;-62
2022/11/17 06:57:30;;;;;;;9.75;6.95;;;;;;;;;;5082114;28;20047;-61
2022/11/17 06:59:56;;;;;;;11.13;7.43;;;;;;;;;;5094196;28;20032;-59
2022/11/17 07:02:22;;;;;;;9.82;7.00;;;;;;;;;;5104609;27;20035;-62
2022/11/17 07:04:48;;;;;;;12.38;7.60;;;;;;;;;;5085286;28;20159;-64
2022/11/17 07:07:14;;;;;;;12.77;8.23;;;;;;;;;;5080631;28;20036;-63
2022/11/17 07:09:40;;;;;;;12.32;7.57;;;;;;;;;;5082144;28;20032;-63
2022/11/17 07:12:06;;;;;;;12.15;7.60;;;;;;;;;;5087110;28;20039;-62
2022/11/17 07:14:32;;;;;;;14.60;7.88;;;;;;;;;;5094068;28;20652;-64
2022/11/17 07:16:58;;;;;;;;;;;;;;;;;;5080880;28;20036;-63
2022/11/17 07:19:25;;;;;;;12.85;7.88;;;;;;;;;;5115302;27;19916;-61
2022/11/17 07:21:51;;;;;;;13.73;8.00;;;;;;;;;;5087518;28;20131;-63
2022/11/17 07:24:17;;;;;;;14.07;7.78;;;;;;;;;;5083579;28;20487;-63
2022/11/17 07:26:43;;;;;;;;;;;;;;;;;;5083673;28;20036;-63
2022/11/17 07:29:09;;;;;;;10.75;7.10;;;;;;;;;;5077175;28;19924;-63
2022/11/17 07:31:35;;;;;;;13.45;8.18;;;;;;;;;;5088391;28;20146;-63
2022/11/17 07:34:02;;;;;;;20.30;8.93;;;;;;;;;;5085967;28;20687;-63
2022/11/17 07:36:28;;;;;;;13.00;7.45;;;;;;;;;;5067724;28;20068;-62
2022/11/17 07:38:54;;;;;;;;;;;;;;;;;;5094543;28;20545;-63
2022/11/17 07:41:20;;;;;;;11.40;7.00;;;;;;;;;;5075282;28;19922;-64
2022/11/17 07:43:46;;;;;;;13.23;7.82;;;;;;;;;;5098944;28;20040;-60
2022/11/17 07:46:12;;;;;;;;;;;;;;;;;;5086120;28;20032;-61
2022/11/17 07:48:38;;;;;;;15.52;7.10;;;;;;;;;;5085323;28;19969;-61
2022/11/17 07:51:05;;;;;;;16.33;7.53;;;;;;;;;;5084194;28;20036;-61
2022/11/17 07:53:33;;;;;;;12.15;7.47;;;;;;;;;;5086656;28;20592;-61
2022/11/17 07:56:03;;;;;;;10.98;6.70;;;;;;;;;;5086661;28;20099;-61
2022/11/17 07:58:30;;;;;;;9.68;5.43;;;;;;;;;;5078982;28;20036;-61
2022/11/17 08:00:55;;;;;;;9.43;5.75;;;;;;;;;;5085700;28;20067;-61
2022/11/17 08:03:23;;;;;;;;;;;;;;;;;;5089099;28;20059;-61
2022/11/17 08:05:49;;;;;;;8.60;5.13;;;;;;;;;;5086955;28;19920;-61
2022/11/17 08:08:15;;;;;;;5.15;4.07;;;;;;;;;;5094900;28;20035;-63
2022/11/17 08:10:44;;;;;;;6.88;4.72;;;;;;;;;;5087247;28;20038;-62
2022/11/17 08:13:11;;;;;;;4.85;3.60;;;;;;;;;;5090349;28;20036;-62
2022/11/17 08:15:37;;;;;;;5.57;3.42;;;;;;;;;;5087337;28;20113;-61
2022/11/17 08:18:03;;;;;;;5.00;2.92;;;;;;;;;;5087738;28;20040;-62
2022/11/17 08:20:30;;;;;;;3.83;2.63;;;;;;;;;;5089838;28;20614;-62
2022/11/17 08:22:56;;;;;;;5.00;2.45;;;;;;;;;;5087129;28;20553;-62
2022/11/17 08:25:23;;;;;;;5.88;2.28;;;;;;;;;;5087882;28;20028;-62
2022/11/17 08:27:50;;;;;;;1.88;1.63;;;;;;;;;;5085745;28;21315;-62
2022/11/17 08:30:18;;;;;;;3.65;1.40;;;;;;;;;;5084771;28;20040;-61
2022/11/17 08:32:48;;;;;;;1.40;1.30;;;;;;;;;;5082740;28;20135;-62
2022/11/17 08:35:15;;;;;;;2.47;1.48;;;;;;;;;;5086219;28;20110;-60
2022/11/17 08:37:42;;;;;;;2.45;1.90;;;;;;;;;;5091285;28;20047;-62
2022/11/17 08:40:08;;;;;;;2.55;1.58;;;;;;;;;;5087472;28;20060;-61
2022/11/17 08:42:34;;;;;;;1.95;1.48;;;;;;;;;;5085647;28;20074;-62
2022/11/17 08:45:00;;;;;;;2.33;1.48;;;;;;;;;;5086860;28;20040;-61
2022/11/17 08:47:26;;;;;;;;;;;;;;;;;;5087238;28;20699;-62
2022/11/17 08:49:52;;;;;;;1.38;1.15;;;;;;;;;;5085696;28;20061;-62
2022/11/17 08:52:18;;;;;;;1.75;1.40;;;;;;;;;;5086021;28;20682;-62
2022/11/17 08:54:45;;;;;;;1.20;0.95;;;;;;;;;;5085898;28;20036;-62
2022/11/17 08:57:11;;;;;;;1.55;0.88;;;;;;;;;;5077419;28;20045;-62
2022/11/17 08:59:37;;;;;;;;;;;;;;;;;;5090298;28;20405;-61
2022/11/17 09:02:03;;;;;;;1.83;0.98;;;;;;;;;;5092334;28;19916;-62
2022/11/17 09:04:29;;;;;;;1.40;1.00;;;;;;;;;;5093835;28;20043;-61
2022/11/17 09:06:55;;;;;;;1.20;0.70;;;;;;;;;;5087939;28;20467;-61
2022/11/17 09:09:21;;;;;;;1.23;0.70;;;;;;;;;;5088270;28;20043;-62
2022/11/17 09:11:47;;;;;;;1.13;0.50;;;;;;;;;;5085038;28;20047;-62
2022/11/17 09:14:13;;;;;;;1.60;0.60;;;;;;;;;;5091758;28;20032;-61
2022/11/17 09:16:39;;;;;;;7.32;0.50;;;;;;;;;;5083663;28;20117;-61
2022/11/17 09:19:06;;;;;;;1.85;0.70;;;;;;;;;;5073918;28;20046;-62
2022/11/17 09:21:32;;;;;;;1.67;0.70;;;;;;;;;;5086338;28;20118;-62
2022/11/17 09:23:59;;;;;;;1.60;0.60;;;;;;;;;;5087654;28;20047;-62
2022/11/17 09:26:25;;;;;;;1.13;0.55;;;;;;;;;;5086671;28;20036;-62
2022/11/17 09:28:51;;;;;;;1.67;0.70;;;;;;;;;;5085750;28;20051;-62
2022/11/17 09:31:22;;;;;;;1.63;0.57;;;;;;;;;;5083282;28;20056;-62
2022/11/17 09:33:48;;;;;;;0.77;0.43;;;;;;;;;;5081609;28;20040;-62
2022/11/17 09:36:15;;;;;;;0.52;0.38;;;;;;;;;;5067645;28;20036;-61
2022/11/17 09:38:41;;;;;;;0.40;0.30;;;;;;;;;;5091708;28;20063;-62
2022/11/17 09:41:26;;;;;;;0.50;0.40;;;;;;;;;;5067226;28;20051;-63
2022/11/17 09:43:54;;;;;;;0.98;0.45;;;;;;;;;;5085432;28;20036;-62
2022/11/17 09:46:24;;;;;;;4.20;0.43;;;;;;;;;;5084169;28;20086;-62
2022/11/17 09:48:57;;;;;;;1.67;0.68;;;;;;;;;;5084519;28;20040;-62
2022/11/17 09:51:24;;;;;;;1.00;0.35;;;;;;;;;;5084546;28;20067;-62
2022/11/17 09:53:53;;;;;;;1.08;0.50;;;;;;;;;;5084236;28;20040;-62
2022/11/17 09:56:20;;;;;;;1.17;0.50;;;;;;;;;;5082443;28;20708;-63
2022/11/17 09:59:03;;;;;;;1.38;0.60;;;;;;;;;;5084073;28;20438;-62
2022/11/17 10:01:29;;;;;;;2.97;0.65;;;;;;;;;;5076683;28;20036;-62
2022/11/17 10:03:57;;;;;;;2.75;0.57;;;;;;;;;;5079195;28;20780;-62
2022/11/17 10:06:28;;;;;;;1.58;0.70;;;;;;;;;;5082920;28;20078;-62
2022/11/17 10:09:00;;;;;;;1.17;0.50;;;;;;;;;;5095608;28;20040;-63
2022/11/17 10:11:30;;;;;;;1.48;0.57;;;;;;;;;;5078745;28;20028;-63
2022/11/17 10:13:56;;;;;;;1.00;0.43;;;;;;;;;;5083549;28;20123;-62
2022/11/17 10:16:23;;;;;;;2.13;0.85;;;;;;;;;;5082993;28;20054;-62
2022/11/17 10:18:49;;;;;;;5.20;2.47;;;;;;;;;;5081903;28;20039;-62
2022/11/17 10:21:14;;;;;;;;;;;;;;;;;;5083986;28;20113;-62
2022/11/17 10:23:44;;;;;;;2.35;0.98;;;;;;;;;;5084952;28;19923;-62
2022/11/17 10:26:14;;;;;;;3.47;0.82;;;;;;;;;;5084801;28;20071;-62
2022/11/17 10:28:40;;;;;;;6.63;1.23;;;;;;;;;;5065790;28;20072;-62
2022/11/17 10:31:06;;;;;;;;;;;;;;;;;;5082996;28;20093;-62
2022/11/17 10:33:46;;;;;;;5.32;1.40;;;;;;;;;;5086796;28;19916;-62
2022/11/17 10:36:32;;;;;;;2.28;1.05;;;;;;;;;;5083667;28;20130;-61
2022/11/17 10:38:59;;;;;;;1.77;1.17;;;;;;;;;;5085533;28;20054;-61
2022/11/17 10:41:34;;;;;;;3.58;1.02;;;;;;;;;;5066863;28;20074;-62
2022/11/17 10:44:02;;;;;;;3.17;0.80;;;;;;;;;;5083620;28;20059;-62
2022/11/17 10:46:29;;;;;;;2.13;1.17;;;;;;;;;;5064151;28;20044;-62
2022/11/17 10:48:56;;;;;;;1.98;1.00;;;;;;;;;;5080910;28;20040;-62
2022/11/17 10:51:25;;;;;;;2.50;0.95;;;;;;;;;;5083272;28;20047;-62
2022/11/17 10:54:06;;;;;;;2.78;0.65;;;;;;;;;;5079693;28;20032;-63
2022/11/17 10:56:43;;;;;;;2.40;0.73;;;;;;;;;;5081926;28;20385;-62
2022/11/17 10:59:09;;;;;;;4.00;0.93;;;;;;;;;;5081753;28;20066;-62
2022/11/17 11:01:35;;;;;;;;;;;;;;;;;;5082903;28;20031;-62
2022/11/17 11:04:02;;;;;;;7.82;0.98;;;;;;;;;;5081681;28;20034;-61
2022/11/17 11:06:29;;;;;;;3.10;0.70;;;;;;;;;;5081684;28;20702;-61
2022/11/17 11:08:58;;;;;;;9.88;0.88;;;;;;;;;;5075453;28;20040;-62
2022/11/17 11:11:24;;;;;;;3.88;0.30;;;;;;;;;;5081534;28;20043;-63
2022/11/17 11:13:50;;;;;;;;;;;;;;;;;;5084489;28;20028;-62
2022/11/17 11:16:16;;;;;;;0.90;0.30;;;;;;;;;;5082582;28;19912;-62
2022/11/17 11:18:42;;;;;;;;;;;;;;;;;;5085028;28;20043;-62
2022/11/17 11:21:16;;;;;;;1.88;0.57;;;;;;;;;;5083897;28;20007;-62
2022/11/17 11:23:45;;;;;;;1.77;0.40;;;;;;;;;;5084223;28;20040;-63
2022/11/17 11:26:11;;;;;;;1.77;0.68;;;;;;;;;;5083017;28;20033;-63
2022/11/17 11:28:38;;;;;;;;;;;;;;;;;;5083989;28;20036;-63
2022/11/17 11:31:16;;;;;;;6.05;0.70;;;;;;;;;;5082815;28;19912;-62
2022/11/17 11:33:49;;;;;;;3.40;0.60;;;;;;;;;;5082270;28;20039;-63
2022/11/17 11:36:21;;;;;;;1.30;0.50;;;;;;;;;;5082478;28;20036;-62
2022/11/17 11:38:50;;;;;;;3.35;0.60;;;;;;;;;;5085691;28;20040;-62
2022/11/17 11:41:16;;;;;;;4.55;0.50;;;;;;;;;;5081712;28;20756;-63
2022/11/17 11:43:53;;;;;;;3.38;0.50;;;;;;;;;;5082819;28;20039;-62
2022/11/17 11:46:23;;;;;;;4.47;0.60;;;;;;;;;;5084370;28;20266;-63
2022/11/17 11:48:52;;;;;;;2.80;0.50;;;;;;;;;;5083849;28;20032;-61
2022/11/17 11:51:21;;;;;;;2.95;0.50;;;;;;;;;;5082524;28;20042;-63
2022/11/17 11:53:58;;;;;;;1.88;0.95;;;;;;;;;;5087863;28;20040;-63
2022/11/17 11:56:24;;;;;;;1.58;0.50;;;;;;;;;;5078369;28;20077;-63
2022/11/17 11:58:53;;;;;;;3.08;0.68;;;;;;;;;;5080483;28;20132;-63
2022/11/17 12:01:21;;;;;;;5.45;0.50;;;;;;;;;;5075312;28;20046;-62
2022/11/17 12:03:56;;;;;;;3.20;0.60;;;;;;;;;;5079878;28;21469;-63
2022/11/17 12:06:41;;;;;;;1.88;0.55;;;;;;;;;;5076962;28;20044;-63
2022/11/17 12:09:22;;;;;;;2.92;0.80;;;;;;;;;;5082643;28;20116;-63
2022/11/17 12:12:01;;;;;;;3.95;0.60;;;;;;;;;;5081669;28;20032;-63
2022/11/17 12:14:35;;;;;;;4.03;0.65;;;;;;;;;;5079019;28;20039;-62
2022/11/17 12:17:13;;;;;;;3.95;0.70;;;;;;;;;;5083722;28;20044;-62
2022/11/17 12:19:53;;;;;;;1.60;0.60;;;;;;;;;;5086696;28;20032;-61
2022/11/17 12:22:19;;;;;;;9.07;0.85;;;;;;;;;;5066412;28;20039;-63
2022/11/17 12:24:45;;;;;;;;;;;;;;;;;;5085801;28;20123;-63
2022/11/17 12:27:30;;;;;;;3.45;0.50;;;;;;;;;;5090367;28;19924;-63
2022/11/17 12:29:56;;;;;;;8.27;1.13;;;;;;;;;;5085690;28;20032;-63
2022/11/17 12:32:40;;;;;;;2.38;0.75;;;;;;;;;;5086636;28;20143;-63
2022/11/17 12:35:25;;;;;;;2.90;0.60;;;;;;;;;;5084825;28;20050;-63
2022/11/17 12:38:10;;;;;;;5.13;0.70;;;;;;;;;;5087289;28;20043;-63
2022/11/17 12:40:40;;;;;;;2.95;0.60;;;;;;;;;;5080775;28;20051;-63
2022/11/17 12:43:15;;;;;;;3.83;0.80;;;;;;;;;;5086528;28;20039;-63
2022/11/17 12:46:00;;;;;;;4.00;0.60;;;;;;;;;;5086743;28;20040;-62
2022/11/17 12:48:40;;;;;;;4.03;0.55;;;;;;;;;;5077950;28;20044;-63
2022/11/17 12:51:09;;;;;;;3.20;0.68;;;;;;;;;;5084260;28;20127;-63
2022/11/17 12:53:41;;;;;;;3.55;0.57;;;;;;;;;;5084330;28;20040;-63
2022/11/17 12:56:07;;;;;;;6.28;0.60;;;;;;;;;;5083636;28;20089;-63
2022/11/17 12:58:33;;;;;;;1.90;0.50;;;;;;;;;;5084000;28;20044;-63
2022/11/17 13:00:59;;;;;;;;;;;;;;;;;;5079362;28;20039;-63
2022/11/17 13:03:29;;;;;;;2.03;0.52;;;;;;;;;;5085589;28;20027;-63
2022/11/17 13:06:13;;;;;;;3.00;1.00;;;;;;;;;;5084927;28;20307;-63
2022/11/17 13:08:39;;;;;;;2.45;0.60;;;;;;;;;;5091700;28;20032;-63
2022/11/17 13:11:06;;;;;;;;;;;;;;;;;;5084551;28;20097;-63
2022/11/17 13:13:32;;;;;;;2.67;0.50;;;;;;;;;;5084805;28;19927;-63
2022/11/17 13:15:59;;;;;;;2.58;1.00;;;;;;;;;;5082997;28;20040;-63
2022/11/17 13:18:25;;;;;;;2.65;0.68;;;;;;;;;;5084347;28;20101;-63
2022/11/17 13:20:51;;;;;;;;;;;;;;;;;;5084402;28;20042;-63
2022/11/17 13:23:22;;;;;;;5.28;0.57;;;;;;;;;;5081612;28;20109;-63
2022/11/17 13:25:48;;;;;;;3.45;0.52;;;;;;;;;;5084034;28;20036;-63
2022/11/17 13:28:31;;;;;;;5.82;0.95;;;;;;;;;;5083485;28;20071;-63
2022/11/17 13:30:58;;;;;;;1.77;0.50;;;;;;;;;;5080322;28;20552;-63
2022/11/17 13:33:25;;;;;;;3.53;0.60;;;;;;;;;;5086770;28;20043;-63
2022/11/17 13:36:06;;;;;;;3.15;0.65;;;;;;;;;;5087508;28;20043;-62
2022/11/17 13:38:32;;;;;;;3.97;0.98;;;;;;;;;;5092486;28;20765;-63
2022/11/17 13:40:59;;;;;;;6.82;0.73;;;;;;;;;;5090540;28;20051;-62
2022/11/17 13:43:26;;;;;;;3.65;0.82;;;;;;;;;;5092816;28;20123;-62
2022/11/17 13:45:53;;;;;;;4.28;1.02;;;;;;;;;;5083554;28;20090;-62
2022/11/17 13:48:33;;;;;;;7.40;1.00;;;;;;;;;;5065460;28;20054;-62
2022/11/17 13:51:17;;;;;;;4.25;1.20;;;;;;;;;;5083352;28;20036;-61
2022/11/17 13:53:45;;;;;;;4.65;0.98;;;;;;;;;;5084259;28;20525;-63
2022/11/17 13:56:31;;;;;;;4.68;1.15;;;;;;;;;;5084770;28;20122;-63
2022/11/17 13:58:58;;;;;;;3.37;0.97;;;;;;;;;;5084803;28;20178;-62
2022/11/17 14:01:28;;;;;;;3.22;0.73;;;;;;;;;;5082314;28;20036;-63
2022/11/17 14:04:11;;;;;;;11.20;1.08;;;;;;;;;;5084032;28;20044;-63
2022/11/17 14:06:54;;;;;;;2.78;0.63;;;;;;;;;;5076310;28;20032;-63
2022/11/17 14:09:21;;;;;;;2.47;0.50;;;;;;;;;;5091952;28;20040;-62
2022/11/17 14:11:47;;;;;;;3.97;0.80;;;;;;;;;;5083652;28;20020;-60
2022/11/17 14:14:14;;;;;;;5.55;0.60;;;;;;;;;;5082877;28;20040;-64
2022/11/17 14:16:41;;;;;;;4.35;2.22;;;;;;;;;;5083894;28;20032;-62
2022/11/17 14:19:16;;;;;;;2.92;0.85;;;;;;;;;;5084637;28;20112;-62
2022/11/17 14:22:03;;;;;;;3.67;1.02;;;;;;;;;;5084313;28;20047;-63
2022/11/17 14:24:31;;;;;;;3.45;0.60;;;;;;;;;;5083625;28;20042;-62
2022/11/17 14:26:57;;;;;;;3.70;0.90;;;;;;;;;;5083271;28;20040;-62
2022/11/17 14:29:23;;;;;;;2.22;0.60;;;;;;;;;;5075522;28;20040;-63
2022/11/17 14:31:50;;;;;;;5.82;0.73;;;;;;;;;;5082435;28;20034;-63
2022/11/17 14:34:16;;;;;;;4.63;0.93;;;;;;;;;;5074252;28;20895;-62
2022/11/17 14:36:42;;;;;;;2.25;0.45;;;;;;;;;;5081700;28;20052;-64
2022/11/17 14:39:15;;;;;;;1.38;0.60;;;;;;;;;;5094144;28;20591;-63
2022/11/17 14:41:42;;;;;;;2.10;0.77;;;;;;;;;;5087484;28;20054;-63
2022/11/17 14:44:08;;;;;;;2.13;0.60;;;;;;;;;;5082733;28;20044;-63
2022/11/17 14:46:34;;;;;;;2.65;0.80;;;;;;;;;;5083226;28;20044;-63
2022/11/17 14:49:01;;;;;;;1.83;0.70;;;;;;;;;;5070096;28;20201;-61
2022/11/17 14:51:27;;;;;;;6.15;0.63;;;;;;;;;;5082207;28;20039;-62
2022/11/17 14:53:53;;;;;;;2.90;0.73;;;;;;;;;;5083733;28;20131;-63
2022/11/17 14:56:20;;;;;;;4.78;0.93;;;;;;;;;;5080758;28;20535;-63